createdAt,value
2023-05-01T00:01:05.915Z,67.48
2023-05-01T00:03:34.000Z,67.75
2023-05-01T00:06:03.236Z,67.91
2023-05-01T00:08:32.326Z,67.95
2023-05-01T00:11:04.100Z,67.49
2023-05-01T00:13:31.692Z,68.48
2023-05-01T00:15:59.241Z,67.71
2023-05-01T00:18:26.742Z,67.87
2023-05-01T00:20:54.258Z,67.94
2023-05-01T00:23:21.707Z,68.33
2023-05-01T00:25:50.553Z,68.50
2023-05-01T00:28:19.320Z,68.31
2023-05-01T00:30:47.143Z,68.58
2023-05-01T00:33:14.830Z,68.62
2023-05-01T00:35:44.860Z,68.51
2023-05-01T00:38:12.407Z,68.83
2023-05-01T00:40:43.633Z,68.62
2023-05-01T00:43:13.653Z,68.18
2023-05-01T00:45:45.236Z,69.19
2023-05-01T00:48:12.996Z,68.77
2023-05-01T00:50:40.681Z,69.18
2023-05-01T00:53:08.183Z,68.54
2023-05-01T00:55:36.650Z,68.08
2023-05-01T00:58:05.634Z,68.73
2023-05-01T01:00:34.457Z,69.08
2023-05-01T01:03:02.316Z,68.71
2023-05-01T01:05:31.585Z,69.56
2023-05-01T01:08:06.881Z,69.50
2023-05-01T01:10:41.260Z,69.48
2023-05-01T01:13:15.995Z,68.70
2023-05-01T01:15:46.986Z,68.80
2023-05-01T01:18:20.276Z,69.69
2023-05-01T01:20:53.153Z,69.03
2023-05-01T01:23:43.943Z,70.63
2023-05-01T01:26:50.420Z,71.45
2023-05-01T01:29:32.556Z,69.74
2023-05-01T01:32:10.247Z,70.61
2023-05-01T01:34:45.208Z,69.19
2023-05-01T01:37:18.245Z,70.90
2023-05-01T01:39:54.027Z,69.71
2023-05-01T01:42:27.409Z,69.31
2023-05-01T01:44:57.162Z,69.65
2023-05-01T01:47:29.145Z,71.15
2023-05-01T01:50:01.199Z,70.09
2023-05-01T01:52:30.170Z,69.06
2023-05-01T01:55:06.315Z,68.97
2023-05-01T01:57:35.984Z,71.04
2023-05-01T02:00:08.743Z,69.79
2023-05-01T02:02:38.077Z,69.31
2023-05-01T02:05:08.945Z,69.56
2023-05-01T02:07:40.403Z,69.35
2023-05-01T02:10:10.663Z,70.96
2023-05-01T02:12:38.636Z,70.54
2023-05-01T02:15:08.579Z,71.55
2023-05-01T02:17:37.480Z,69.76
2023-05-01T02:20:08.506Z,72.40
2023-05-01T02:22:37.650Z,70.41
2023-05-01T02:25:07.227Z,69.81
2023-05-01T02:27:39.106Z,69.45
2023-05-01T02:30:08.039Z,73.20
2023-05-01T02:32:36.387Z,71.61
2023-05-01T02:35:03.985Z,70.96
2023-05-01T02:37:33.117Z,71.32
2023-05-01T02:40:00.642Z,70.11
2023-05-01T02:42:29.687Z,70.24
2023-05-01T02:45:00.872Z,70.56
2023-05-01T02:47:31.058Z,69.71
2023-05-01T02:50:01.169Z,69.08
2023-05-01T02:52:29.763Z,68.95
2023-05-01T02:54:58.807Z,68.91
2023-05-01T02:57:26.812Z,68.91
2023-05-01T02:59:54.493Z,68.37
2023-05-01T03:02:22.162Z,69.63
2023-05-01T03:04:49.890Z,68.70
2023-05-01T03:07:17.564Z,69.81
2023-05-01T03:09:45.015Z,68.85
2023-05-01T03:12:13.937Z,68.77
2023-05-01T03:14:41.379Z,69.15
2023-05-01T03:17:08.798Z,68.86
2023-05-01T03:19:37.324Z,68.37
2023-05-01T03:22:04.923Z,68.59
2023-05-01T03:24:32.483Z,69.61
2023-05-01T03:27:00.111Z,69.38
2023-05-01T03:29:29.207Z,69.69
2023-05-01T03:31:57.675Z,69.42
2023-05-01T03:34:25.162Z,69.17
2023-05-01T03:36:52.629Z,69.55
2023-05-01T03:39:20.122Z,69.38
2023-05-01T03:41:47.559Z,69.28
2023-05-01T03:44:15.138Z,69.12
2023-05-01T03:46:44.379Z,69.68
2023-05-01T03:49:12.700Z,69.66
2023-05-01T03:51:40.164Z,71.25
2023-05-01T03:54:07.916Z,72.98
2023-05-01T03:56:36.633Z,73.92
2023-05-01T03:59:04.093Z,72.82
2023-05-01T04:01:33.485Z,70.51
2023-05-01T04:04:03.496Z,69.91
2023-05-01T04:06:31.165Z,70.60
2023-05-01T04:08:58.622Z,69.98
2023-05-01T04:11:26.117Z,69.65
2023-05-01T04:13:53.570Z,69.91
2023-05-01T04:16:21.174Z,69.67
2023-05-01T04:18:48.939Z,69.33
2023-05-01T04:21:18.711Z,69.14
2023-05-01T04:23:46.292Z,71.05
2023-05-01T04:26:13.799Z,70.47
2023-05-01T04:28:41.274Z,70.31
2023-05-01T04:31:08.782Z,69.92
2023-05-01T04:33:36.350Z,70.65
2023-05-01T04:36:03.886Z,71.09
2023-05-01T04:38:32.849Z,70.46
2023-05-01T04:41:00.299Z,71.63
2023-05-01T04:43:27.788Z,70.81
2023-05-01T04:45:55.499Z,70.91
2023-05-01T04:48:23.026Z,70.41
2023-05-01T04:50:50.610Z,72.13
2023-05-01T04:53:18.082Z,70.72
2023-05-01T04:55:46.866Z,70.51
2023-05-01T04:58:14.311Z,70.71
2023-05-01T05:00:41.855Z,70.22
2023-05-01T05:03:09.344Z,72.06
2023-05-01T05:05:37.021Z,68.42
2023-05-01T05:08:04.680Z,69.18
2023-05-01T05:10:32.210Z,68.20
2023-05-01T05:13:00.996Z,69.98
2023-05-01T05:15:28.549Z,69.22
2023-05-01T05:17:56.742Z,68.24
2023-05-01T05:20:24.400Z,69.12
2023-05-01T05:22:52.221Z,68.85
2023-05-01T05:25:20.028Z,68.14
2023-05-01T05:27:47.467Z,68.94
2023-05-01T05:30:16.315Z,68.13
2023-05-01T05:32:44.339Z,67.91
2023-05-01T05:35:11.869Z,66.72
2023-05-01T05:37:39.570Z,66.96
2023-05-01T05:40:08.435Z,66.46
2023-05-01T05:42:36.244Z,64.80
2023-05-01T05:45:03.711Z,65.07
2023-05-01T05:47:32.521Z,65.94
2023-05-01T05:49:59.977Z,64.86
2023-05-01T05:52:27.528Z,64.71
2023-05-01T05:54:55.002Z,64.84
2023-05-01T05:57:22.558Z,64.61
2023-05-01T05:59:50.291Z,65.40
2023-05-01T06:02:17.839Z,65.63
2023-05-01T06:04:46.678Z,65.76
2023-05-01T06:07:14.125Z,65.95
2023-05-01T06:09:41.809Z,64.04
2023-05-01T06:12:09.260Z,65.34
2023-05-01T06:14:36.703Z,65.12
2023-05-01T06:17:04.379Z,65.71
2023-05-01T06:19:31.835Z,65.22
2023-05-01T06:22:00.740Z,65.29
2023-05-01T06:24:28.377Z,65.82
2023-05-01T06:26:55.850Z,64.80
2023-05-01T06:29:23.354Z,65.22
2023-05-01T06:31:51.077Z,64.05
2023-05-01T06:34:18.708Z,63.91
2023-05-01T06:36:46.156Z,65.18
2023-05-01T06:39:14.991Z,64.83
2023-05-01T06:41:42.451Z,63.26
2023-05-01T06:44:09.886Z,63.39
2023-05-01T06:46:37.441Z,63.15
2023-05-01T06:49:05.230Z,63.92
2023-05-01T06:51:32.665Z,62.81
2023-05-01T06:54:00.365Z,62.81
2023-05-01T06:56:29.209Z,64.18
2023-05-01T06:58:56.743Z,64.33
2023-05-01T07:01:24.510Z,63.64
2023-05-01T07:03:52.097Z,62.48
2023-05-01T07:06:19.654Z,63.96
2023-05-01T07:08:47.150Z,64.53
2023-05-01T07:11:14.728Z,63.06
2023-05-01T07:13:43.710Z,64.76
2023-05-01T07:16:13.735Z,62.84
2023-05-01T07:18:41.251Z,65.21
2023-05-01T07:21:10.058Z,63.48
2023-05-01T07:23:37.535Z,61.29
2023-05-01T07:26:05.615Z,63.64
2023-05-01T07:28:33.179Z,61.16
2023-05-01T07:31:02.375Z,61.48
2023-05-01T07:33:29.825Z,60.18
2023-05-01T07:35:57.883Z,60.87
2023-05-01T07:38:25.325Z,61.27
2023-05-01T07:40:53.537Z,62.19
2023-05-01T07:43:21.077Z,62.48
2023-05-01T07:45:55.992Z,61.46
2023-05-01T07:48:24.783Z,62.62
2023-05-01T07:50:52.238Z,60.95
2023-05-01T07:53:19.843Z,61.57
2023-05-01T07:55:47.321Z,60.08
2023-05-01T07:58:14.796Z,61.11
2023-05-01T08:00:44.917Z,59.37
2023-05-01T08:03:12.914Z,59.83
2023-05-01T08:05:42.449Z,60.51
2023-05-01T08:08:10.123Z,59.92
2023-05-01T08:10:37.612Z,60.07
2023-05-01T08:13:05.068Z,60.38
2023-05-01T08:15:32.546Z,60.11
2023-05-01T08:18:00.097Z,60.91
2023-05-01T08:20:27.676Z,62.13
2023-05-01T08:22:56.499Z,59.45
2023-05-01T08:25:24.528Z,61.56
2023-05-01T08:27:52.582Z,58.69
2023-05-01T08:30:20.492Z,58.25
2023-05-01T08:32:48.090Z,57.31
2023-05-01T08:35:15.788Z,59.85
2023-05-01T08:37:43.383Z,58.26
2023-05-01T08:40:12.868Z,59.86
2023-05-01T08:42:40.343Z,58.57
2023-05-01T08:45:09.994Z,59.04
2023-05-01T08:47:38.320Z,58.19
2023-05-01T08:50:10.466Z,60.45
2023-05-01T08:52:41.420Z,59.96
2023-05-01T08:55:13.689Z,60.62
2023-05-01T08:57:46.492Z,59.15
2023-05-01T09:00:19.356Z,59.91
2023-05-01T09:02:49.092Z,60.42
2023-05-01T09:05:17.575Z,59.72
2023-05-01T09:07:45.885Z,60.82
2023-05-01T09:10:16.553Z,59.63
2023-05-01T09:12:46.319Z,61.92
2023-05-01T09:15:14.340Z,58.02
2023-05-01T09:17:44.117Z,58.69
2023-05-01T09:20:12.446Z,57.98
2023-05-01T09:22:40.222Z,59.92
2023-05-01T09:25:10.281Z,60.78
2023-05-01T09:27:39.288Z,60.71
2023-05-01T09:30:09.410Z,58.79
2023-05-01T09:32:37.678Z,61.03
2023-05-01T09:35:12.563Z,63.44
2023-05-01T09:37:40.487Z,66.14
2023-05-01T09:40:09.789Z,67.95
2023-05-01T09:42:40.407Z,66.36
2023-05-01T09:45:14.010Z,65.58
2023-05-01T09:47:42.553Z,66.53
2023-05-01T09:50:11.366Z,66.74
2023-05-01T09:52:38.821Z,66.59
2023-05-01T09:55:13.961Z,67.05
2023-05-01T09:57:43.915Z,68.00
2023-05-01T10:00:13.979Z,69.21
2023-05-01T10:02:42.596Z,70.01
2023-05-01T10:05:11.137Z,71.01
2023-05-01T10:07:39.197Z,71.84
2023-05-01T10:10:19.498Z,74.74
2023-05-01T10:12:48.990Z,76.73
2023-05-01T10:15:25.315Z,76.66
2023-05-01T10:17:54.942Z,78.39
2023-05-01T10:20:23.026Z,79.46
2023-05-01T10:22:50.563Z,81.32
2023-05-01T10:25:18.914Z,78.29
2023-05-01T10:27:48.438Z,80.68
2023-05-01T10:30:18.055Z,86.09
2023-05-01T10:32:47.253Z,81.37
2023-05-01T10:35:20.298Z,83.51
2023-05-01T10:37:49.896Z,84.62
2023-05-01T10:40:46.815Z,85.15
2023-05-01T10:43:20.803Z,84.38
2023-05-01T10:45:49.505Z,87.38
2023-05-01T10:48:59.305Z,87.58
2023-05-01T10:51:28.524Z,88.45
2023-05-01T10:54:28.114Z,89.25
2023-05-01T10:56:57.282Z,90.21
2023-05-01T10:59:26.339Z,87.24
2023-05-01T11:01:54.325Z,91.06
2023-05-01T11:04:51.070Z,89.29
2023-05-01T11:07:19.867Z,88.94
2023-05-01T11:09:49.085Z,94.61
2023-05-01T11:12:37.720Z,93.19
2023-05-01T11:15:08.276Z,89.72
2023-05-01T11:17:49.586Z,91.15
2023-05-01T11:21:00.502Z,91.77
2023-05-01T11:23:27.998Z,89.76
2023-05-01T11:26:08.253Z,90.49
2023-05-01T11:28:39.211Z,88.82
2023-05-01T11:31:08.208Z,91.06
2023-05-01T11:33:37.097Z,91.11
2023-05-01T11:36:05.146Z,91.53
2023-05-01T11:38:32.671Z,90.66
2023-05-01T11:41:02.737Z,90.14
2023-05-01T11:43:30.415Z,90.89
2023-05-01T11:46:02.367Z,90.86
2023-05-01T11:48:32.495Z,89.87
2023-05-01T11:51:00.099Z,91.10
2023-05-01T11:55:53.576Z,92.34
2023-05-01T11:58:34.637Z,89.47
2023-05-01T12:01:03.220Z,93.04
2023-05-01T12:03:41.284Z,95.42
2023-05-01T12:06:10.721Z,94.65
2023-05-01T12:08:38.370Z,94.08
2023-05-01T12:11:07.854Z,93.61
2023-05-01T12:13:36.347Z,93.02
2023-05-01T12:16:05.776Z,95.17
2023-05-01T12:18:34.798Z,93.88
2023-05-01T12:21:02.346Z,94.53
2023-05-01T12:23:34.655Z,91.62
2023-05-01T12:26:03.845Z,91.67
2023-05-01T12:28:32.006Z,92.78
2023-05-01T12:31:05.370Z,94.20
2023-05-01T12:33:34.561Z,93.23
2023-05-01T12:36:11.067Z,90.19
2023-05-01T12:38:38.849Z,92.55
2023-05-01T12:41:09.318Z,91.85
2023-05-01T12:43:38.414Z,88.78
2023-05-01T12:46:07.601Z,91.64
2023-05-01T12:48:40.091Z,95.63
2023-05-01T12:51:08.124Z,92.86
2023-05-01T12:53:35.811Z,93.74
2023-05-01T12:56:03.470Z,93.71
2023-05-01T12:58:37.803Z,96.84
2023-05-01T13:01:06.411Z,95.45
2023-05-01T13:03:39.397Z,92.82
2023-05-01T13:06:08.968Z,91.69
2023-05-01T13:08:39.370Z,93.09
2023-05-01T13:11:12.944Z,93.55
2023-05-01T13:13:41.565Z,92.14
2023-05-01T13:16:10.480Z,90.53
2023-05-01T13:18:47.046Z,88.58
2023-05-01T13:21:16.153Z,89.89
2023-05-01T13:23:56.299Z,91.19
2023-05-01T13:26:28.950Z,89.88
2023-05-01T13:28:57.205Z,85.97
2023-05-01T13:31:25.074Z,87.62
2023-05-01T13:33:55.303Z,87.60
2023-05-01T13:36:26.865Z,87.49
2023-05-01T13:38:57.160Z,86.83
2023-05-01T13:41:26.459Z,84.85
2023-05-01T13:43:55.881Z,85.11
2023-05-01T13:46:24.625Z,84.36
2023-05-01T13:48:53.596Z,85.16
2023-05-01T13:51:23.646Z,84.22
2023-05-01T13:53:53.150Z,83.98
2023-05-01T13:56:21.439Z,83.76
2023-05-01T13:58:49.968Z,84.08
2023-05-01T14:01:20.020Z,83.93
2023-05-01T14:03:48.215Z,82.41
2023-05-01T14:06:20.592Z,81.31
2023-05-01T14:08:49.775Z,82.44
2023-05-01T14:11:18.058Z,82.63
2023-05-01T14:13:47.507Z,82.83
2023-05-01T14:16:23.183Z,82.10
2023-05-01T14:18:53.330Z,84.30
2023-05-01T14:21:23.921Z,82.05
2023-05-01T14:23:53.438Z,80.92
2023-05-01T14:26:22.871Z,80.77
2023-05-01T14:28:50.763Z,81.19
2023-05-01T14:31:26.927Z,81.93
2023-05-01T14:33:57.327Z,80.56
2023-05-01T14:36:28.190Z,80.79
2023-05-01T14:38:57.397Z,80.54
2023-05-01T14:41:25.458Z,79.70
2023-05-01T14:43:54.004Z,80.43
2023-05-01T14:46:27.877Z,80.56
2023-05-01T14:48:55.662Z,80.56
2023-05-01T14:51:23.206Z,79.59
2023-05-01T14:53:52.308Z,80.96
2023-05-01T14:56:20.036Z,80.82
2023-05-01T14:58:47.777Z,79.22
2023-05-01T15:01:15.665Z,81.18
2023-05-01T15:03:43.804Z,79.70
2023-05-01T15:06:11.637Z,79.83
2023-05-01T15:08:39.135Z,80.18
2023-05-01T15:11:08.504Z,80.82
2023-05-01T15:13:36.593Z,81.44
2023-05-01T15:16:04.198Z,80.43
2023-05-01T15:18:31.667Z,79.73
2023-05-01T15:20:59.154Z,79.23
2023-05-01T15:23:27.309Z,78.99
2023-05-01T15:25:55.034Z,79.89
2023-05-01T15:28:24.674Z,80.47
2023-05-01T15:30:53.639Z,79.55
2023-05-01T15:33:22.154Z,81.70
2023-05-01T15:35:50.967Z,79.66
2023-05-01T15:38:20.291Z,77.68
2023-05-01T15:40:49.718Z,77.03
2023-05-01T15:43:17.182Z,77.00
2023-05-01T15:45:46.146Z,77.14
2023-05-01T15:48:13.680Z,77.74
2023-05-01T15:50:41.253Z,77.58
2023-05-01T15:53:09.453Z,78.55
2023-05-01T15:55:37.031Z,76.71
2023-05-01T15:58:04.626Z,76.27
2023-05-01T16:00:32.770Z,77.58
2023-05-01T16:03:04.161Z,76.59
2023-05-01T16:05:32.034Z,77.33
2023-05-01T16:08:01.596Z,75.28
2023-05-01T16:10:29.120Z,76.24
2023-05-01T16:12:56.560Z,75.48
2023-05-01T16:15:24.236Z,76.70
2023-05-01T16:17:54.110Z,76.95
2023-05-01T16:20:24.766Z,76.47
2023-05-01T16:22:52.364Z,76.46
2023-05-01T16:25:19.949Z,77.61
2023-05-01T16:27:47.587Z,76.58
2023-05-01T16:30:15.484Z,77.61
2023-05-01T16:32:44.425Z,78.15
2023-05-01T16:35:12.554Z,77.18
2023-05-01T16:37:41.322Z,77.49
2023-05-01T16:40:10.154Z,76.66
2023-05-01T16:42:38.688Z,76.68
2023-05-01T16:45:08.503Z,76.48
2023-05-01T16:47:36.861Z,76.25
2023-05-01T16:50:09.783Z,76.74
2023-05-01T16:52:38.985Z,76.92
2023-05-01T16:55:09.900Z,77.15
2023-05-01T16:57:37.368Z,76.49
2023-05-01T17:00:06.228Z,75.98
2023-05-01T17:02:34.087Z,76.42
2023-05-01T17:05:02.949Z,76.54
2023-05-01T17:07:30.483Z,76.54
2023-05-01T17:09:58.452Z,76.48
2023-05-01T17:12:27.732Z,76.55
2023-05-01T17:14:56.378Z,76.41
2023-05-01T17:17:24.871Z,75.96
2023-05-01T17:19:52.536Z,76.06
2023-05-01T17:22:19.989Z,76.42
2023-05-01T17:24:47.827Z,76.01
2023-05-01T17:27:15.464Z,76.23
2023-05-01T17:29:44.295Z,76.76
2023-05-01T17:34:40.082Z,76.85
2023-05-01T17:37:08.526Z,77.56
2023-05-01T17:39:35.934Z,77.77
2023-05-01T17:42:04.297Z,77.36
2023-05-01T17:44:32.962Z,78.12
2023-05-01T17:47:01.760Z,77.45
2023-05-01T17:49:29.284Z,77.85
2023-05-01T17:51:56.929Z,76.96
2023-05-01T17:54:24.522Z,76.87
2023-05-01T17:56:51.973Z,77.10
2023-05-01T17:59:19.798Z,77.18
2023-05-01T18:01:48.267Z,78.88
2023-05-01T18:04:17.098Z,76.77
2023-05-01T18:06:44.811Z,76.44
2023-05-01T18:09:12.316Z,76.65
2023-05-01T18:11:39.763Z,76.24
2023-05-01T18:14:07.223Z,76.60
2023-05-01T18:16:34.756Z,76.59
2023-05-01T18:19:02.390Z,76.54
2023-05-01T18:21:31.294Z,77.15
2023-05-01T18:23:58.810Z,77.21
2023-05-01T18:26:27.529Z,77.08
2023-05-01T18:28:54.959Z,77.31
2023-05-01T18:31:22.546Z,77.47
2023-05-01T18:33:50.062Z,77.84
2023-05-01T18:36:17.566Z,77.13
2023-05-01T18:38:46.409Z,77.48
2023-05-01T18:41:13.914Z,77.62
2023-05-01T18:43:41.371Z,78.03
2023-05-01T18:46:08.893Z,77.54
2023-05-01T18:48:36.478Z,77.85
2023-05-01T18:51:08.551Z,78.06
2023-05-01T18:53:36.790Z,78.24
2023-05-01T18:56:05.910Z,78.49
2023-05-01T18:58:33.403Z,77.88
2023-05-01T19:01:00.888Z,78.53
2023-05-01T19:03:28.332Z,78.23
2023-05-01T19:05:55.791Z,78.40
2023-05-01T19:08:23.309Z,78.51
2023-05-01T19:10:50.831Z,78.53
2023-05-01T19:13:19.652Z,78.56
2023-05-01T19:15:47.296Z,79.12
2023-05-01T19:18:16.037Z,78.61
2023-05-01T19:20:43.597Z,78.36
2023-05-01T19:23:11.074Z,78.06
2023-05-01T19:25:38.813Z,78.52
2023-05-01T19:28:06.422Z,78.83
2023-05-01T19:30:35.290Z,78.70
2023-05-01T19:33:02.800Z,78.24
2023-05-01T19:35:30.337Z,78.33
2023-05-01T19:37:59.214Z,78.55
2023-05-01T19:40:26.685Z,78.77
2023-05-01T19:42:54.243Z,78.14
2023-05-01T19:45:21.729Z,78.03
2023-05-01T19:47:50.687Z,77.55
2023-05-01T19:50:18.995Z,77.52
2023-05-01T19:52:46.475Z,77.75
2023-05-01T19:55:16.820Z,77.89
2023-05-01T19:57:44.471Z,77.56
2023-05-01T20:00:12.847Z,77.41
2023-05-01T20:02:41.505Z,77.64
2023-05-01T20:05:11.318Z,77.15
2023-05-01T20:07:38.821Z,77.02
2023-05-01T20:10:07.267Z,77.60
2023-05-01T20:12:34.760Z,77.26
2023-05-01T20:15:02.241Z,77.17
2023-05-01T20:17:29.959Z,76.91
2023-05-01T20:19:57.718Z,76.74
2023-05-01T20:22:26.840Z,77.16
2023-05-01T20:24:54.508Z,77.25
2023-05-01T20:27:22.067Z,77.14
2023-05-01T20:29:49.648Z,77.45
2023-05-01T20:32:18.163Z,77.93
2023-05-01T20:34:45.511Z,76.85
2023-05-01T20:37:12.956Z,77.33
2023-05-01T20:39:41.932Z,77.24
2023-05-01T20:42:09.425Z,77.20
2023-05-01T20:44:36.881Z,77.43
2023-05-01T20:47:04.378Z,76.93
2023-05-01T20:49:31.874Z,77.54
2023-05-01T20:51:59.719Z,77.10
2023-05-01T20:54:31.515Z,76.96
2023-05-01T20:57:01.774Z,77.88
2023-05-01T20:59:29.295Z,77.54
2023-05-01T21:01:57.001Z,77.30
2023-05-01T21:04:24.492Z,76.81
2023-05-01T21:06:53.030Z,77.55
2023-05-01T21:09:20.503Z,76.89
2023-05-01T21:11:48.030Z,77.38
2023-05-01T21:14:17.124Z,77.98
2023-05-01T21:16:44.664Z,77.60
2023-05-01T21:19:12.897Z,77.78
2023-05-01T21:21:40.606Z,77.41
2023-05-01T21:24:09.136Z,76.87
2023-05-01T21:26:36.871Z,77.12
2023-05-01T21:29:04.357Z,78.31
2023-05-01T21:31:33.491Z,77.82
2023-05-01T21:34:03.254Z,77.78
2023-05-01T21:36:31.402Z,78.04
2023-05-01T21:39:00.918Z,77.08
2023-05-01T21:41:28.401Z,78.00
2023-05-01T21:43:55.868Z,77.74
2023-05-01T21:46:23.355Z,78.19
2023-05-01T21:48:52.407Z,78.22
2023-05-01T21:51:26.764Z,78.23
2023-05-01T21:53:54.277Z,78.41
2023-05-01T21:56:22.452Z,77.19
2023-05-01T21:58:51.078Z,77.02
2023-05-01T22:01:20.230Z,77.80
2023-05-01T22:03:49.629Z,78.35
2023-05-01T22:06:18.650Z,77.55
2023-05-01T22:08:46.154Z,77.98
2023-05-01T22:11:13.700Z,78.13
2023-05-01T22:13:41.198Z,77.45
2023-05-01T22:16:08.979Z,78.21
2023-05-01T22:18:36.536Z,78.16
2023-05-01T22:21:04.487Z,77.64
2023-05-01T22:23:33.282Z,77.58
2023-05-01T22:26:00.876Z,78.15
2023-05-01T22:28:28.378Z,77.40
2023-05-01T22:30:55.927Z,77.80
2023-05-01T22:33:23.458Z,78.30
2023-05-01T22:35:50.934Z,77.57
2023-05-01T22:38:18.504Z,78.00
2023-05-01T22:40:47.278Z,77.75
2023-05-01T22:43:14.740Z,78.65
2023-05-01T22:45:42.774Z,78.20
2023-05-01T22:48:10.521Z,78.18
2023-05-01T22:50:38.106Z,77.60
2023-05-01T22:53:05.626Z,77.64
2023-05-01T22:55:33.815Z,78.13
2023-05-01T22:58:02.609Z,78.75
2023-05-01T23:00:30.310Z,77.61
2023-05-01T23:02:57.858Z,78.39
2023-05-01T23:05:25.410Z,78.18
2023-05-01T23:07:52.878Z,78.03
2023-05-01T23:10:27.721Z,78.46
2023-05-01T23:12:55.369Z,78.17
2023-05-01T23:15:25.859Z,78.06
2023-05-01T23:17:53.576Z,78.60
2023-05-01T23:20:23.502Z,78.15
2023-05-01T23:22:51.781Z,77.77
2023-05-01T23:25:24.196Z,78.01
2023-05-01T23:27:53.452Z,78.91
2023-05-01T23:30:22.289Z,78.31
2023-05-01T23:32:51.510Z,77.94
2023-05-01T23:35:23.674Z,77.95
2023-05-01T23:37:52.740Z,78.23
2023-05-01T23:40:20.529Z,78.38
2023-05-01T23:42:48.287Z,78.44
2023-05-01T23:45:16.946Z,78.79
2023-05-01T23:47:44.365Z,78.28
2023-05-01T23:50:14.308Z,77.85
2023-05-01T23:52:41.765Z,77.91
2023-05-01T23:55:09.366Z,78.02
2023-05-01T23:57:36.974Z,79.08
